sensor_id;sensor_type;location;lat;lon;timestamp;P1;durP1;ratioP1;P2;durP2;ratioP2
76396;SDS011;66045;51.622;5.526;2023-04-01T00:00:46;5.15;;;1.20;;
76396;SDS011;66045;51.622;5.526;2023-04-01T00:03:11;3.00;;;1.10;;
76396;SDS011;66045;51.622;5.526;2023-04-01T00:05:37;4.00;;;1.33;;
76396;SDS011;66045;51.622;5.526;2023-04-01T00:08:02;3.25;;;1.33;;
76396;SDS011;66045;51.622;5.526;2023-04-01T00:10:28;4.00;;;1.33;;
76396;SDS011;66045;51.622;5.526;2023-04-01T00:12:53;2.75;;;0.90;;
76396;SDS011;66045;51.622;5.526;2023-04-01T00:15:18;4.35;;;1.02;;
76396;SDS011;66045;51.622;5.526;2023-04-01T00:17:44;5.95;;;1.40;;
76396;SDS011;66045;51.622;5.526;2023-04-01T00:20:09;3.65;;;1.42;;
76396;SDS011;66045;51.622;5.526;2023-04-01T00:22:35;5.00;;;1.20;;
76396;SDS011;66045;51.622;5.526;2023-04-01T00:25:01;4.57;;;1.73;;
76396;SDS011;66045;51.622;5.526;2023-04-01T00:27:27;3.95;;;1.20;;
76396;SDS011;66045;51.622;5.526;2023-04-01T00:29:52;2.45;;;0.88;;
76396;SDS011;66045;51.622;5.526;2023-04-01T00:32:18;4.72;;;1.35;;
76396;SDS011;66045;51.622;5.526;2023-04-01T00:34:43;2.53;;;1.00;;
76396;SDS011;66045;51.622;5.526;2023-04-01T00:37:09;3.40;;;1.00;;
76396;SDS011;66045;51.622;5.526;2023-04-01T00:39:35;4.15;;;1.10;;
76396;SDS011;66045;51.622;5.526;2023-04-01T00:42:01;3.85;;;1.10;;
76396;SDS011;66045;51.622;5.526;2023-04-01T00:44:32;4.68;;;1.20;;
76396;SDS011;66045;51.622;5.526;2023-04-01T00:46:59;3.10;;;1.00;;
76396;SDS011;66045;51.622;5.526;2023-04-01T00:49:29;3.13;;;1.00;;
76396;SDS011;66045;51.622;5.526;2023-04-01T00:51:59;4.28;;;1.00;;
76396;SDS011;66045;51.622;5.526;2023-04-01T00:54:27;3.80;;;1.00;;
76396;SDS011;66045;51.622;5.526;2023-04-01T00:57:08;3.28;;;1.10;;
76396;SDS011;66045;51.622;5.526;2023-04-01T00:59:39;3.58;;;0.90;;
76396;SDS011;66045;51.622;5.526;2023-04-01T01:02:08;1.88;;;0.90;;
76396;SDS011;66045;51.622;5.526;2023-04-01T01:04:36;4.47;;;1.20;;
76396;SDS011;66045;51.622;5.526;2023-04-01T01:12:53;2.50;;;0.93;;
76396;SDS011;66045;51.622;5.526;2023-04-01T01:15:27;2.05;;;1.08;;
76396;SDS011;66045;51.622;5.526;2023-04-01T01:29:07;1.15;;;0.77;;
76396;SDS011;66045;51.622;5.526;2023-04-01T01:31:54;9.55;;;1.20;;
76396;SDS011;66045;51.622;5.526;2023-04-01T01:37:03;3.53;;;1.00;;
76396;SDS011;66045;51.622;5.526;2023-04-01T01:39:34;2.63;;;1.10;;
76396;SDS011;66045;51.622;5.526;2023-04-01T01:42:03;2.22;;;0.90;;
76396;SDS011;66045;51.622;5.526;2023-04-01T01:44:31;2.67;;;0.80;;
76396;SDS011;66045;51.622;5.526;2023-04-01T01:46:58;3.63;;;1.80;;
76396;SDS011;66045;51.622;5.526;2023-04-01T01:49:25;2.55;;;0.98;;
76396;SDS011;66045;51.622;5.526;2023-04-01T01:51:55;1.65;;;0.80;;
76396;SDS011;66045;51.622;5.526;2023-04-01T01:54:21;2.47;;;1.00;;
76396;SDS011;66045;51.622;5.526;2023-04-01T01:56:47;2.97;;;1.15;;
76396;SDS011;66045;51.622;5.526;2023-04-01T01:59:15;3.42;;;0.80;;
76396;SDS011;66045;51.622;5.526;2023-04-01T02:01:46;1.92;;;0.90;;
76396;SDS011;66045;51.622;5.526;2023-04-01T02:04:15;1.67;;;0.80;;
76396;SDS011;66045;51.622;5.526;2023-04-01T02:06:53;2.50;;;0.85;;
76396;SDS011;66045;51.622;5.526;2023-04-01T02:09:25;1.42;;;0.70;;
76396;SDS011;66045;51.622;5.526;2023-04-01T02:11:59;1.77;;;0.85;;
76396;SDS011;66045;51.622;5.526;2023-04-01T02:17:18;2.73;;;1.20;;
76396;SDS011;66045;51.622;5.526;2023-04-01T02:19:56;3.58;;;0.93;;
76396;SDS011;66045;51.622;5.526;2023-04-01T02:24:53;2.70;;;1.10;;
76396;SDS011;66045;51.622;5.526;2023-04-01T02:27:22;2.53;;;1.02;;
76396;SDS011;66045;51.622;5.526;2023-04-01T02:29:48;1.38;;;0.63;;
76396;SDS011;66045;51.622;5.526;2023-04-01T02:32:14;2.53;;;0.93;;
76396;SDS011;66045;51.622;5.526;2023-04-01T02:34:42;2.50;;;0.93;;
76396;SDS011;66045;51.622;5.526;2023-04-01T02:37:08;2.85;;;0.98;;
76396;SDS011;66045;51.622;5.526;2023-04-01T02:39:35;1.33;;;0.80;;
76396;SDS011;66045;51.622;5.526;2023-04-01T02:42:00;1.52;;;0.90;;
76396;SDS011;66045;51.622;5.526;2023-04-01T02:44:26;1.83;;;1.00;;
76396;SDS011;66045;51.622;5.526;2023-04-01T02:46:51;1.40;;;0.80;;
76396;SDS011;66045;51.622;5.526;2023-04-01T02:49:17;1.92;;;0.98;;
76396;SDS011;66045;51.622;5.526;2023-04-01T02:51:43;2.65;;;0.80;;
76396;SDS011;66045;51.622;5.526;2023-04-01T02:54:08;2.88;;;1.05;;
76396;SDS011;66045;51.622;5.526;2023-04-01T02:56:33;3.03;;;0.80;;
76396;SDS011;66045;51.622;5.526;2023-04-01T02:58:59;1.35;;;0.80;;
76396;SDS011;66045;51.622;5.526;2023-04-01T03:01:24;1.58;;;1.02;;
76396;SDS011;66045;51.622;5.526;2023-04-01T03:03:50;2.40;;;0.88;;
76396;SDS011;66045;51.622;5.526;2023-04-01T03:06:15;1.60;;;0.90;;
76396;SDS011;66045;51.622;5.526;2023-04-01T03:08:41;2.38;;;1.00;;
76396;SDS011;66045;51.622;5.526;2023-04-01T03:11:08;1.02;;;0.70;;
76396;SDS011;66045;51.622;5.526;2023-04-01T03:13:34;2.15;;;0.90;;
76396;SDS011;66045;51.622;5.526;2023-04-01T03:16:00;1.52;;;0.80;;
76396;SDS011;66045;51.622;5.526;2023-04-01T03:18:25;1.80;;;0.80;;
76396;SDS011;66045;51.622;5.526;2023-04-01T03:20:51;0.60;;;0.60;;
76396;SDS011;66045;51.622;5.526;2023-04-01T03:23:16;1.85;;;0.80;;
76396;SDS011;66045;51.622;5.526;2023-04-01T03:25:44;1.38;;;0.80;;
76396;SDS011;66045;51.622;5.526;2023-04-01T03:28:09;1.75;;;0.80;;
76396;SDS011;66045;51.622;5.526;2023-04-01T03:30:35;1.30;;;0.70;;
76396;SDS011;66045;51.622;5.526;2023-04-01T03:33:01;1.98;;;0.90;;
76396;SDS011;66045;51.622;5.526;2023-04-01T03:35:26;2.08;;;1.00;;
76396;SDS011;66045;51.622;5.526;2023-04-01T03:37:52;1.30;;;0.80;;
76396;SDS011;66045;51.622;5.526;2023-04-01T03:40:18;1.98;;;0.90;;
76396;SDS011;66045;51.622;5.526;2023-04-01T03:42:44;1.23;;;0.80;;
76396;SDS011;66045;51.622;5.526;2023-04-01T03:45:10;0.85;;;0.80;;
76396;SDS011;66045;51.622;5.526;2023-04-01T03:47:37;2.67;;;0.80;;
76396;SDS011;66045;51.622;5.526;2023-04-01T03:50:03;2.80;;;1.00;;
76396;SDS011;66045;51.622;5.526;2023-04-01T03:52:30;1.23;;;0.82;;
76396;SDS011;66045;51.622;5.526;2023-04-01T03:54:55;1.60;;;0.90;;
76396;SDS011;66045;51.622;5.526;2023-04-01T03:57:21;2.35;;;0.82;;
76396;SDS011;66045;51.622;5.526;2023-04-01T03:59:46;2.40;;;0.90;;
76396;SDS011;66045;51.622;5.526;2023-04-01T04:02:11;2.90;;;1.10;;
76396;SDS011;66045;51.622;5.526;2023-04-01T04:04:37;2.70;;;0.88;;
76396;SDS011;66045;51.622;5.526;2023-04-01T04:07:02;2.47;;;1.00;;
76396;SDS011;66045;51.622;5.526;2023-04-01T04:09:29;2.05;;;0.77;;
76396;SDS011;66045;51.622;5.526;2023-04-01T04:11:55;2.22;;;0.93;;
76396;SDS011;66045;51.622;5.526;2023-04-01T04:14:21;1.92;;;0.90;;
76396;SDS011;66045;51.622;5.526;2023-04-01T04:16:47;1.33;;;0.80;;
76396;SDS011;66045;51.622;5.526;2023-04-01T04:19:12;2.13;;;0.90;;
76396;SDS011;66045;51.622;5.526;2023-04-01T04:21:39;2.90;;;0.80;;
76396;SDS011;66045;51.622;5.526;2023-04-01T04:24:04;1.75;;;0.88;;
76396;SDS011;66045;51.622;5.526;2023-04-01T04:26:30;2.13;;;0.95;;
76396;SDS011;66045;51.622;5.526;2023-04-01T04:28:56;2.45;;;0.90;;
76396;SDS011;66045;51.622;5.526;2023-04-01T04:31:22;1.23;;;0.80;;
76396;SDS011;66045;51.622;5.526;2023-04-01T04:33:48;2.20;;;0.98;;
76396;SDS011;66045;51.622;5.526;2023-04-01T04:36:13;2.15;;;0.93;;
76396;SDS011;66045;51.622;5.526;2023-04-01T04:38:39;1.23;;;0.80;;
76396;SDS011;66045;51.622;5.526;2023-04-01T04:41:14;1.45;;;0.68;;
76396;SDS011;66045;51.622;5.526;2023-04-01T04:43:47;1.33;;;0.80;;
76396;SDS011;66045;51.622;5.526;2023-04-01T04:46:15;1.75;;;1.10;;
76396;SDS011;66045;51.622;5.526;2023-04-01T04:48:40;1.27;;;0.80;;
76396;SDS011;66045;51.622;5.526;2023-04-01T04:51:06;1.85;;;0.70;;
76396;SDS011;66045;51.622;5.526;2023-04-01T04:53:32;1.05;;;0.70;;
76396;SDS011;66045;51.622;5.526;2023-04-01T04:55:57;1.92;;;1.10;;
76396;SDS011;66045;51.622;5.526;2023-04-01T04:58:22;1.63;;;0.80;;
76396;SDS011;66045;51.622;5.526;2023-04-01T05:00:47;1.70;;;0.63;;
76396;SDS011;66045;51.622;5.526;2023-04-01T05:03:13;0.77;;;0.63;;
76396;SDS011;66045;51.622;5.526;2023-04-01T05:05:39;1.45;;;0.70;;
76396;SDS011;66045;51.622;5.526;2023-04-01T05:08:05;1.05;;;0.65;;
76396;SDS011;66045;51.622;5.526;2023-04-01T05:10:31;0.90;;;0.70;;
76396;SDS011;66045;51.622;5.526;2023-04-01T05:12:57;0.85;;;0.63;;
76396;SDS011;66045;51.622;5.526;2023-04-01T05:15:23;0.85;;;0.80;;
76396;SDS011;66045;51.622;5.526;2023-04-01T05:17:49;0.60;;;0.55;;
76396;SDS011;66045;51.622;5.526;2023-04-01T05:20:14;0.65;;;0.65;;
76396;SDS011;66045;51.622;5.526;2023-04-01T05:22:41;0.90;;;0.55;;
76396;SDS011;66045;51.622;5.526;2023-04-01T05:25:07;2.25;;;0.90;;
76396;SDS011;66045;51.622;5.526;2023-04-01T05:27:32;1.80;;;0.82;;
76396;SDS011;66045;51.622;5.526;2023-04-01T05:29:58;1.20;;;0.60;;
76396;SDS011;66045;51.622;5.526;2023-04-01T05:32:23;1.45;;;0.85;;
76396;SDS011;66045;51.622;5.526;2023-04-01T05:34:52;1.15;;;0.70;;
76396;SDS011;66045;51.622;5.526;2023-04-01T05:37:18;1.25;;;0.75;;
76396;SDS011;66045;51.622;5.526;2023-04-01T05:39:44;1.60;;;0.70;;
76396;SDS011;66045;51.622;5.526;2023-04-01T05:42:09;0.77;;;0.60;;
76396;SDS011;66045;51.622;5.526;2023-04-01T05:44:35;1.35;;;0.80;;
76396;SDS011;66045;51.622;5.526;2023-04-01T05:47:01;3.13;;;0.70;;
76396;SDS011;66045;51.622;5.526;2023-04-01T05:49:27;1.30;;;0.60;;
76396;SDS011;66045;51.622;5.526;2023-04-01T05:51:52;1.33;;;0.80;;
76396;SDS011;66045;51.622;5.526;2023-04-01T05:54:18;1.00;;;0.70;;
76396;SDS011;66045;51.622;5.526;2023-04-01T05:56:43;1.08;;;0.70;;
76396;SDS011;66045;51.622;5.526;2023-04-01T05:59:10;1.58;;;0.80;;
76396;SDS011;66045;51.622;5.526;2023-04-01T06:01:36;0.75;;;0.50;;
76396;SDS011;66045;51.622;5.526;2023-04-01T06:04:01;1.80;;;0.73;;
76396;SDS011;66045;51.622;5.526;2023-04-01T06:06:28;1.17;;;0.70;;
76396;SDS011;66045;51.622;5.526;2023-04-01T06:08:55;2.78;;;0.98;;
76396;SDS011;66045;51.622;5.526;2023-04-01T06:14:15;1.42;;;0.70;;
76396;SDS011;66045;51.622;5.526;2023-04-01T06:25:14;1.77;;;0.80;;
76396;SDS011;66045;51.622;5.526;2023-04-01T06:50:30;3.65;;;2.00;;
76396;SDS011;66045;51.622;5.526;2023-04-01T06:56:00;4.22;;;2.80;;
76396;SDS011;66045;51.622;5.526;2023-04-01T06:58:51;3.63;;;2.38;;
76396;SDS011;66045;51.622;5.526;2023-04-01T07:05:08;7.50;;;3.00;;
76396;SDS011;66045;51.622;5.526;2023-04-01T07:07:27;5.57;;;3.30;;
76396;SDS011;66045;51.622;5.526;2023-04-01T07:09:58;4.90;;;2.85;;
76396;SDS011;66045;51.622;5.526;2023-04-01T07:15:09;5.95;;;3.17;;
76396;SDS011;66045;51.622;5.526;2023-04-01T07:20:17;5.82;;;3.78;;
76396;SDS011;66045;51.622;5.526;2023-04-01T07:22:54;5.30;;;3.33;;
76396;SDS011;66045;51.622;5.526;2023-04-01T07:25:24;6.53;;;3.80;;
76396;SDS011;66045;51.622;5.526;2023-04-01T07:27:53;6.05;;;3.53;;
76396;SDS011;66045;51.622;5.526;2023-04-01T07:30:25;8.00;;;4.13;;
76396;SDS011;66045;51.622;5.526;2023-04-01T07:33:01;7.88;;;3.83;;
76396;SDS011;66045;51.622;5.526;2023-04-01T07:35:33;6.93;;;3.92;;
76396;SDS011;66045;51.622;5.526;2023-04-01T07:41:24;7.53;;;4.10;;
76396;SDS011;66045;51.622;5.526;2023-04-01T07:49:08;5.57;;;3.53;;
76396;SDS011;66045;51.622;5.526;2023-04-01T07:54:28;6.97;;;4.07;;
76396;SDS011;66045;51.622;5.526;2023-04-01T08:10:36;6.63;;;4.00;;
76396;SDS011;66045;51.622;5.526;2023-04-01T08:23:51;6.45;;;4.00;;
76396;SDS011;66045;51.622;5.526;2023-04-01T08:26:33;7.63;;;4.53;;
76396;SDS011;66045;51.622;5.526;2023-04-01T08:29:04;7.47;;;4.50;;
76396;SDS011;66045;51.622;5.526;2023-04-01T08:34:30;6.45;;;3.80;;
76396;SDS011;66045;51.622;5.526;2023-04-01T08:37:05;7.38;;;4.05;;
76396;SDS011;66045;51.622;5.526;2023-04-01T08:39:45;6.13;;;3.90;;
76396;SDS011;66045;51.622;5.526;2023-04-01T08:51:03;7.80;;;4.60;;
76396;SDS011;66045;51.622;5.526;2023-04-01T08:56:20;9.30;;;4.97;;
76396;SDS011;66045;51.622;5.526;2023-04-01T09:21:32;8.25;;;4.45;;
76396;SDS011;66045;51.622;5.526;2023-04-01T09:24:48;8.10;;;4.85;;
76396;SDS011;66045;51.622;5.526;2023-04-01T09:27:04;8.85;;;4.75;;
76396;SDS011;66045;51.622;5.526;2023-04-01T09:29:43;6.53;;;4.13;;
76396;SDS011;66045;51.622;5.526;2023-04-01T09:49:21;6.57;;;4.15;;
76396;SDS011;66045;51.622;5.526;2023-04-01T09:59:49;7.63;;;3.65;;
76396;SDS011;66045;51.622;5.526;2023-04-01T10:27:16;6.00;;;3.33;;
76396;SDS011;66045;51.622;5.526;2023-04-01T10:43:57;4.15;;;2.75;;
76396;SDS011;66045;51.622;5.526;2023-04-01T10:51:57;5.28;;;2.60;;
76396;SDS011;66045;51.622;5.526;2023-04-01T11:22:24;3.80;;;2.22;;
76396;SDS011;66045;51.622;5.526;2023-04-01T11:39:10;4.72;;;2.70;;
76396;SDS011;66045;51.622;5.526;2023-04-01T11:42:24;4.00;;;2.55;;
76396;SDS011;66045;51.622;5.526;2023-04-01T11:45:21;4.93;;;2.78;;
76396;SDS011;66045;51.622;5.526;2023-04-01T11:47:58;4.55;;;2.60;;
76396;SDS011;66045;51.622;5.526;2023-04-01T11:51:00;4.50;;;2.70;;
76396;SDS011;66045;51.622;5.526;2023-04-01T11:56:24;5.75;;;2.95;;
76396;SDS011;66045;51.622;5.526;2023-04-01T12:12:33;5.05;;;3.08;;
76396;SDS011;66045;51.622;5.526;2023-04-01T12:15:02;4.38;;;2.80;;
76396;SDS011;66045;51.622;5.526;2023-04-01T12:17:54;5.05;;;2.85;;
76396;SDS011;66045;51.622;5.526;2023-04-01T12:25:55;4.10;;;2.63;;
76396;SDS011;66045;51.622;5.526;2023-04-01T12:31:21;4.00;;;2.53;;
76396;SDS011;66045;51.622;5.526;2023-04-01T12:33:57;4.40;;;2.53;;
76396;SDS011;66045;51.622;5.526;2023-04-01T12:36:37;4.80;;;2.13;;
76396;SDS011;66045;51.622;5.526;2023-04-01T12:39:44;3.95;;;2.20;;
76396;SDS011;66045;51.622;5.526;2023-04-01T12:45:17;3.88;;;1.95;;
76396;SDS011;66045;51.622;5.526;2023-04-01T12:48:00;3.03;;;1.98;;
76396;SDS011;66045;51.622;5.526;2023-04-01T12:53:46;3.45;;;;;
76396;SDS011;66045;51.622;5.526;2023-04-01T13:02:01;5.28;;;2.65;;
76396;SDS011;66045;51.622;5.526;2023-04-01T13:05:01;3.70;;;2.25;;
76396;SDS011;66045;51.622;5.526;2023-04-01T13:18:50;3.42;;;2.05;;
76396;SDS011;66045;51.622;5.526;2023-04-01T13:35:12;3.55;;;1.95;;
76396;SDS011;66045;51.622;5.526;2023-04-01T13:38:08;2.75;;;1.55;;
76396;SDS011;66045;51.622;5.526;2023-04-01T13:43:50;5.47;;;1.70;;
76396;SDS011;66045;51.622;5.526;2023-04-01T13:51:52;3.78;;;1.35;;
76396;SDS011;66045;51.622;5.526;2023-04-01T13:57:14;2.60;;;1.27;;
76396;SDS011;66045;51.622;5.526;2023-04-01T13:59:53;3.80;;;1.23;;
76396;SDS011;66045;51.622;5.526;2023-04-01T14:19:45;4.38;;;1.10;;
76396;SDS011;66045;51.622;5.526;2023-04-01T14:31:11;2.47;;;1.10;;
76396;SDS011;66045;51.622;5.526;2023-04-01T14:33:43;3.20;;;1.20;;
76396;SDS011;66045;51.622;5.526;2023-04-01T14:44:23;2.42;;;1.08;;
76396;SDS011;66045;51.622;5.526;2023-04-01T14:47:39;4.28;;;1.42;;
76396;SDS011;66045;51.622;5.526;2023-04-01T14:49:54;5.32;;;1.30;;
76396;SDS011;66045;51.622;5.526;2023-04-01T14:52:31;1.98;;;1.05;;
76396;SDS011;66045;51.622;5.526;2023-04-01T14:55:01;3.13;;;1.08;;
76396;SDS011;66045;51.622;5.526;2023-04-01T14:57:43;2.85;;;1.17;;
76396;SDS011;66045;51.622;5.526;2023-04-01T15:03:20;4.55;;;1.17;;
76396;SDS011;66045;51.622;5.526;2023-04-01T15:08:47;2.83;;;1.15;;
76396;SDS011;66045;51.622;5.526;2023-04-01T15:11:39;3.38;;;1.30;;
76396;SDS011;66045;51.622;5.526;2023-04-01T15:39:14;2.05;;;1.20;;
76396;SDS011;66045;51.622;5.526;2023-04-01T15:52:45;3.17;;;1.00;;
76396;SDS011;66045;51.622;5.526;2023-04-01T15:55:26;4.82;;;1.23;;
76396;SDS011;66045;51.622;5.526;2023-04-01T15:58:18;2.20;;;1.08;;
76396;SDS011;66045;51.622;5.526;2023-04-01T16:01:04;1.13;;;0.90;;
76396;SDS011;66045;51.622;5.526;2023-04-01T16:06:53;3.50;;;0.95;;
76396;SDS011;66045;51.622;5.526;2023-04-01T16:09:21;1.20;;;0.90;;
76396;SDS011;66045;51.622;5.526;2023-04-01T16:12:11;1.67;;;1.10;;
76396;SDS011;66045;51.622;5.526;2023-04-01T16:17:41;2.90;;;1.67;;
76396;SDS011;66045;51.622;5.526;2023-04-01T16:20:15;1.92;;;1.00;;
76396;SDS011;66045;51.622;5.526;2023-04-01T16:22:57;1.50;;;1.10;;
76396;SDS011;66045;51.622;5.526;2023-04-01T16:25:31;2.05;;;1.10;;
76396;SDS011;66045;51.622;5.526;2023-04-01T16:36:32;1.73;;;0.90;;
76396;SDS011;66045;51.622;5.526;2023-04-01T16:41:53;2.20;;;1.17;;
76396;SDS011;66045;51.622;5.526;2023-04-01T16:44:31;2.67;;;1.10;;
76396;SDS011;66045;51.622;5.526;2023-04-01T16:47:30;3.08;;;0.93;;
76396;SDS011;66045;51.622;5.526;2023-04-01T16:50:06;2.95;;;1.08;;
76396;SDS011;66045;51.622;5.526;2023-04-01T16:52:46;1.77;;;1.10;;
76396;SDS011;66045;51.622;5.526;2023-04-01T16:55:24;1.52;;;1.15;;
76396;SDS011;66045;51.622;5.526;2023-04-01T16:58:00;2.92;;;1.20;;
76396;SDS011;66045;51.622;5.526;2023-04-01T17:00:27;3.53;;;1.35;;
76396;SDS011;66045;51.622;5.526;2023-04-01T17:05:42;7.13;;;1.20;;
76396;SDS011;66045;51.622;5.526;2023-04-01T17:08:22;8.25;;;1.50;;
76396;SDS011;66045;51.622;5.526;2023-04-01T17:11:26;5.00;;;1.20;;
76396;SDS011;66045;51.622;5.526;2023-04-01T17:22:31;6.63;;;1.75;;
76396;SDS011;66045;51.622;5.526;2023-04-01T17:28:04;8.35;;;2.58;;
76396;SDS011;66045;51.622;5.526;2023-04-01T17:30:58;16.45;;;2.92;;
76396;SDS011;66045;51.622;5.526;2023-04-01T17:36:30;12.40;;;2.28;;
76396;SDS011;66045;51.622;5.526;2023-04-01T17:42:15;10.48;;;2.15;;
76396;SDS011;66045;51.622;5.526;2023-04-01T17:47:46;10.23;;;2.78;;
76396;SDS011;66045;51.622;5.526;2023-04-01T17:53:15;7.53;;;1.58;;
76396;SDS011;66045;51.622;5.526;2023-04-01T17:58:21;11.50;;;2.60;;
76396;SDS011;66045;51.622;5.526;2023-04-01T18:09:00;7.07;;;1.52;;
76396;SDS011;66045;51.622;5.526;2023-04-01T18:20:23;6.50;;;1.75;;
76396;SDS011;66045;51.622;5.526;2023-04-01T18:22:54;6.68;;;1.90;;
76396;SDS011;66045;51.622;5.526;2023-04-01T18:25:30;5.03;;;1.70;;
76396;SDS011;66045;51.622;5.526;2023-04-01T18:30:31;5.53;;;1.52;;
76396;SDS011;66045;51.622;5.526;2023-04-01T18:33:04;5.07;;;1.63;;
76396;SDS011;66045;51.622;5.526;2023-04-01T18:35:47;6.70;;;1.80;;
76396;SDS011;66045;51.622;5.526;2023-04-01T18:38:36;6.68;;;1.90;;
76396;SDS011;66045;51.622;5.526;2023-04-01T18:44:28;4.78;;;1.50;;
76396;SDS011;66045;51.622;5.526;2023-04-01T18:50:02;6.18;;;1.60;;
76396;SDS011;66045;51.622;5.526;2023-04-01T18:52:44;5.07;;;1.77;;
76396;SDS011;66045;51.622;5.526;2023-04-01T18:55:24;5.45;;;1.50;;
76396;SDS011;66045;51.622;5.526;2023-04-01T19:01:11;3.65;;;1.33;;
76396;SDS011;66045;51.622;5.526;2023-04-01T19:06:41;3.90;;;1.50;;
76396;SDS011;66045;51.622;5.526;2023-04-01T19:09:22;5.93;;;1.48;;
76396;SDS011;66045;51.622;5.526;2023-04-01T19:18:02;3.63;;;1.23;;
76396;SDS011;66045;51.622;5.526;2023-04-01T19:20:42;4.40;;;1.30;;
76396;SDS011;66045;51.622;5.526;2023-04-01T19:26:26;4.97;;;1.52;;
76396;SDS011;66045;51.622;5.526;2023-04-01T19:40:02;3.75;;;1.33;;
76396;SDS011;66045;51.622;5.526;2023-04-01T19:42:47;3.83;;;1.35;;
76396;SDS011;66045;51.622;5.526;2023-04-01T19:45:37;3.47;;;1.30;;
76396;SDS011;66045;51.622;5.526;2023-04-01T19:48:41;3.90;;;1.27;;
76396;SDS011;66045;51.622;5.526;2023-04-01T19:51:16;3.80;;;1.40;;
76396;SDS011;66045;51.622;5.526;2023-04-01T19:54:06;2.47;;;1.30;;
76396;SDS011;66045;51.622;5.526;2023-04-01T19:56:52;2.88;;;1.10;;
76396;SDS011;66045;51.622;5.526;2023-04-01T20:02:28;3.88;;;1.42;;
76396;SDS011;66045;51.622;5.526;2023-04-01T20:08:05;2.60;;;1.10;;
76396;SDS011;66045;51.622;5.526;2023-04-01T20:10:42;3.05;;;1.30;;
76396;SDS011;66045;51.622;5.526;2023-04-01T20:15:47;3.17;;;1.40;;
76396;SDS011;66045;51.622;5.526;2023-04-01T20:18:34;3.95;;;1.50;;
76396;SDS011;66045;51.622;5.526;2023-04-01T20:23:43;2.85;;;1.23;;
76396;SDS011;66045;51.622;5.526;2023-04-01T20:26:19;4.47;;;1.50;;
76396;SDS011;66045;51.622;5.526;2023-04-01T20:31:58;2.00;;;1.23;;
76396;SDS011;66045;51.622;5.526;2023-04-01T20:35:06;2.70;;;1.30;;
76396;SDS011;66045;51.622;5.526;2023-04-01T20:37:48;2.05;;;1.35;;
76396;SDS011;66045;51.622;5.526;2023-04-01T20:40:50;3.20;;;1.50;;
76396;SDS011;66045;51.622;5.526;2023-04-01T20:49:43;4.07;;;1.45;;
76396;SDS011;66045;51.622;5.526;2023-04-01T20:54:47;2.70;;;1.40;;
76396;SDS011;66045;51.622;5.526;2023-04-01T20:57:45;2.55;;;1.33;;
76396;SDS011;66045;51.622;5.526;2023-04-01T21:00:33;2.10;;;1.40;;
76396;SDS011;66045;51.622;5.526;2023-04-01T21:03:29;1.92;;;1.27;;
76396;SDS011;66045;51.622;5.526;2023-04-01T21:11:41;3.88;;;1.40;;
76396;SDS011;66045;51.622;5.526;2023-04-01T21:20:01;2.35;;;1.38;;
76396;SDS011;66045;51.622;5.526;2023-04-01T21:22:50;1.67;;;1.13;;
76396;SDS011;66045;51.622;5.526;2023-04-01T21:34:09;2.10;;;1.30;;
76396;SDS011;66045;51.622;5.526;2023-04-01T21:37:03;2.28;;;1.20;;
76396;SDS011;66045;51.622;5.526;2023-04-01T21:44:55;1.80;;;1.38;;
76396;SDS011;66045;51.622;5.526;2023-04-01T22:01:17;2.45;;;1.13;;
76396;SDS011;66045;51.622;5.526;2023-04-01T22:07:14;3.55;;;1.63;;
76396;SDS011;66045;51.622;5.526;2023-04-01T22:12:32;6.18;;;1.70;;
76396;SDS011;66045;51.622;5.526;2023-04-01T22:17:45;2.05;;;1.30;;
76396;SDS011;66045;51.622;5.526;2023-04-01T22:31:30;1.85;;;1.40;;
76396;SDS011;66045;51.622;5.526;2023-04-01T22:39:22;1.67;;;1.20;;
76396;SDS011;66045;51.622;5.526;2023-04-01T22:41:54;1.90;;;1.40;;
76396;SDS011;66045;51.622;5.526;2023-04-01T22:52:18;1.95;;;1.30;;
76396;SDS011;66045;51.622;5.526;2023-04-01T22:54:56;3.05;;;1.15;;
76396;SDS011;66045;51.622;5.526;2023-04-01T22:57:36;2.17;;;1.27;;
76396;SDS011;66045;51.622;5.526;2023-04-01T23:00:10;2.42;;;1.38;;
76396;SDS011;66045;51.622;5.526;2023-04-01T23:05:50;2.30;;;1.42;;
76396;SDS011;66045;51.622;5.526;2023-04-01T23:16:51;2.80;;;1.63;;
76396;SDS011;66045;51.622;5.526;2023-04-01T23:21:53;1.77;;;1.40;;
76396;SDS011;66045;51.622;5.526;2023-04-01T23:24:31;2.85;;;1.40;;
76396;SDS011;66045;51.622;5.526;2023-04-01T23:29:45;1.90;;;1.50;;
76396;SDS011;66045;51.622;5.526;2023-04-01T23:32:15;3.08;;;1.63;;
76396;SDS011;66045;51.622;5.526;2023-04-01T23:34:47;1.75;;;1.50;;
76396;SDS011;66045;51.622;5.526;2023-04-01T23:37:14;2.05;;;1.75;;
76396;SDS011;66045;51.622;5.526;2023-04-01T23:39:43;2.03;;;1.50;;
76396;SDS011;66045;51.622;5.526;2023-04-01T23:45:03;2.75;;;1.95;;
76396;SDS011;66045;51.622;5.526;2023-04-01T23:47:38;2.35;;;1.60;;
76396;SDS011;66045;51.622;5.526;2023-04-01T23:50:12;3.55;;;1.48;;
76396;SDS011;66045;51.622;5.526;2023-04-01T23:52:40;1.90;;;1.50;;
76396;SDS011;66045;51.622;5.526;2023-04-01T23:57:34;2.07;;;1.60;;
